Impacts TAF Board
For situational awareness. Not to be used for flight planning purposes.
IDs:

KHSV - Huntsville Intl, AL, US

Issued at 1731 UTC 07 Dec 2021
Updated at 1736 UTC 07 Dec 2021
Potential Impact None Slight Moderate High
Time<<08/06Z 08/07Z 08/08Z 08/09Z 08/10Z 08/11Z 08/12Z 08/13Z 08/14Z 08/15Z 08/16Z 08/17Z 08/18Z>>
Type PRVL PRVL PRVL PRVL PRVL PRVL PRVL PRVL PRVL PRVL PRVL PRVL
VIS >6 >6 >6 >6 >6 >6 >6 >6 >6 >6 >6 >6
CIG 25 25 25 25 25 25 25 25 40 40 40 --
Cover OVC OVC OVC OVC OVC OVC OVC OVC OVC OVC OVC SCT
FltCat MVFR MVFR MVFR MVFR MVFR MVFR MVFR MVFR VFR VFR VFR VFR
WX -- -- -- -- -- -- -- -- -- -- -- --
WDir VRB VRB VRB VRB VRB VRB VRB VRB VRB VRB VRB 350
WSpd 3 3 3 3 3 3 3 3 2 2 2 5
WGst -- -- -- -- -- -- -- -- -- -- -- --
WSHgt -- -- -- -- -- -- -- -- -- -- -- --
WSDir -- -- -- -- -- -- -- -- -- -- -- --
WSSpd -- -- -- -- -- -- -- -- -- -- -- --
R18/36
XWnd VRB VRB VRB VRB VRB VRB VRB VRB VRB VRB VRB -1 0
HWnd VRB VRB VRB VRB VRB VRB VRB VRB VRB VRB VRB -5 0
Raw TAF
KHSV 071731Z 0718/0818 06006KT P6SM SCT060 OVC100
  FM080500 VRB03KT P6SM OVC025
  FM081400 VRB02KT P6SM OVC040
  FM081700 35005KT P6SM SCT100


METAR Board
Radar Display
Forecast Discussion
For situational awareness. Not to be used for flight planning purposes.